sensor_id;sensor_type;location;lat;lon;timestamp;pressure;altitude;pressure_sealevel;temperature;humidity
53908;BME280;40469;47.998;7.794;2022-08-05T00:01:13;98575.94;;;25.51;44.52
53908;BME280;40469;47.998;7.794;2022-08-05T00:03:39;98567.19;;;25.49;44.55
53908;BME280;40469;47.998;7.794;2022-08-05T00:06:04;98567.06;;;25.62;43.89
53908;BME280;40469;47.998;7.794;2022-08-05T00:08:30;98565.50;;;25.60;44.03
53908;BME280;40469;47.998;7.794;2022-08-05T00:10:59;98567.06;;;25.62;43.62
53908;BME280;40469;47.998;7.794;2022-08-05T00:13:25;98563.44;;;25.63;43.76
53908;BME280;40469;47.998;7.794;2022-08-05T00:15:50;98572.31;;;25.64;43.96
53908;BME280;40469;47.998;7.794;2022-08-05T00:18:15;98574.63;;;25.68;43.10
53908;BME280;40469;47.998;7.794;2022-08-05T00:20:41;98574.75;;;25.67;43.34
53908;BME280;40469;47.998;7.794;2022-08-05T00:23:06;98572.31;;;25.52;43.63
53908;BME280;40469;47.998;7.794;2022-08-05T00:25:32;98572.19;;;25.54;43.93
53908;BME280;40469;47.998;7.794;2022-08-05T00:27:57;98573.78;;;25.68;43.32
53908;BME280;40469;47.998;7.794;2022-08-05T00:30:24;98580.81;;;25.58;43.68
53908;BME280;40469;47.998;7.794;2022-08-05T00:32:49;98578.53;;;25.64;43.22
53908;BME280;40469;47.998;7.794;2022-08-05T00:35:14;98582.38;;;25.60;43.72
53908;BME280;40469;47.998;7.794;2022-08-05T00:37:40;98582.28;;;25.73;43.79
53908;BME280;40469;47.998;7.794;2022-08-05T00:40:06;98584.47;;;25.68;44.92
53908;BME280;40469;47.998;7.794;2022-08-05T00:42:33;98581.78;;;25.57;44.06
53908;BME280;40469;47.998;7.794;2022-08-05T00:45:00;98586.66;;;25.74;43.33
53908;BME280;40469;47.998;7.794;2022-08-05T00:47:25;98593.72;;;25.86;43.25
53908;BME280;40469;47.998;7.794;2022-08-05T00:49:51;98593.38;;;25.91;43.06
53908;BME280;40469;47.998;7.794;2022-08-05T00:52:16;98590.34;;;25.96;43.49
53908;BME280;40469;47.998;7.794;2022-08-05T00:54:41;98596.91;;;26.03;43.19
53908;BME280;40469;47.998;7.794;2022-08-05T00:57:07;98595.31;;;26.11;43.03
53908;BME280;40469;47.998;7.794;2022-08-05T00:59:32;98604.94;;;26.14;43.23
53908;BME280;40469;47.998;7.794;2022-08-05T01:01:58;98603.47;;;26.10;43.56
53908;BME280;40469;47.998;7.794;2022-08-05T01:04:23;98617.81;;;25.98;44.24
53908;BME280;40469;47.998;7.794;2022-08-05T01:06:48;98625.69;;;25.88;43.88
53908;BME280;40469;47.998;7.794;2022-08-05T01:09:14;98624.28;;;25.95;43.90
53908;BME280;40469;47.998;7.794;2022-08-05T01:11:40;98626.53;;;25.88;44.14
53908;BME280;40469;47.998;7.794;2022-08-05T01:14:26;98630.56;;;25.94;43.90
53908;BME280;40469;47.998;7.794;2022-08-05T01:17:08;98636.03;;;25.92;44.32
53908;BME280;40469;47.998;7.794;2022-08-05T01:19:42;98640.94;;;25.99;43.82
53908;BME280;40469;47.998;7.794;2022-08-05T01:30:08;98624.75;;;25.31;46.04
53908;BME280;40469;47.998;7.794;2022-08-05T01:32:37;98625.50;;;25.44;45.53
53908;BME280;40469;47.998;7.794;2022-08-05T01:35:16;98635.63;;;25.52;45.45
53908;BME280;40469;47.998;7.794;2022-08-05T01:37:45;98636.81;;;25.48;45.54
53908;BME280;40469;47.998;7.794;2022-08-05T01:40:13;98637.78;;;25.23;46.57
53908;BME280;40469;47.998;7.794;2022-08-05T01:42:42;98647.34;;;25.14;47.24
53908;BME280;40469;47.998;7.794;2022-08-05T01:45:08;98646.03;;;25.20;47.09
53908;BME280;40469;47.998;7.794;2022-08-05T01:47:36;98647.81;;;25.32;46.31
53908;BME280;40469;47.998;7.794;2022-08-05T01:50:04;98648.81;;;25.42;45.94
53908;BME280;40469;47.998;7.794;2022-08-05T01:52:32;98645.69;;;25.48;46.77
53908;BME280;40469;47.998;7.794;2022-08-05T01:55:03;98648.94;;;25.41;47.46
53908;BME280;40469;47.998;7.794;2022-08-05T01:57:35;98648.19;;;25.14;47.74
53908;BME280;40469;47.998;7.794;2022-08-05T02:00:03;98645.91;;;24.97;49.16
53908;BME280;40469;47.998;7.794;2022-08-05T02:02:31;98634.75;;;24.92;49.28
53908;BME280;40469;47.998;7.794;2022-08-05T02:05:00;98641.13;;;24.78;50.38
53908;BME280;40469;47.998;7.794;2022-08-05T02:07:28;98644.91;;;24.63;50.26
53908;BME280;40469;47.998;7.794;2022-08-05T02:09:53;98648.25;;;24.53;50.81
53908;BME280;40469;47.998;7.794;2022-08-05T02:12:43;98643.13;;;24.37;51.11
53908;BME280;40469;47.998;7.794;2022-08-05T02:15:18;98639.94;;;24.32;51.23
53908;BME280;40469;47.998;7.794;2022-08-05T02:18:02;98630.97;;;24.20;51.48
53908;BME280;40469;47.998;7.794;2022-08-05T02:20:32;98619.75;;;24.28;50.60
53908;BME280;40469;47.998;7.794;2022-08-05T02:23:00;98619.75;;;24.28;50.48
53908;BME280;40469;47.998;7.794;2022-08-05T02:25:30;98621.44;;;24.42;50.06
53908;BME280;40469;47.998;7.794;2022-08-05T02:27:58;98619.41;;;24.58;49.68
53908;BME280;40469;47.998;7.794;2022-08-05T02:30:27;98619.78;;;24.65;49.42
53908;BME280;40469;47.998;7.794;2022-08-05T02:32:56;98623.31;;;24.53;50.27
53908;BME280;40469;47.998;7.794;2022-08-05T02:35:24;98619.25;;;24.60;49.72
53908;BME280;40469;47.998;7.794;2022-08-05T02:37:53;98615.47;;;24.38;50.64
53908;BME280;40469;47.998;7.794;2022-08-05T02:40:20;98615.81;;;24.21;50.75
53908;BME280;40469;47.998;7.794;2022-08-05T02:42:47;98607.44;;;24.14;51.04
53908;BME280;40469;47.998;7.794;2022-08-05T02:45:15;98616.06;;;24.05;50.67
53908;BME280;40469;47.998;7.794;2022-08-05T02:47:42;98608.50;;;23.99;50.63
53908;BME280;40469;47.998;7.794;2022-08-05T02:50:09;98616.81;;;24.20;50.19
53908;BME280;40469;47.998;7.794;2022-08-05T02:52:39;98611.47;;;24.20;49.74
53908;BME280;40469;47.998;7.794;2022-08-05T02:55:06;98614.66;;;24.12;50.41
53908;BME280;40469;47.998;7.794;2022-08-05T02:57:33;98613.09;;;24.10;49.89
53908;BME280;40469;47.998;7.794;2022-08-05T02:59:59;98616.16;;;24.03;50.23
53908;BME280;40469;47.998;7.794;2022-08-05T03:02:28;98614.78;;;23.98;49.94
53908;BME280;40469;47.998;7.794;2022-08-05T03:04:56;98608.09;;;23.92;49.75
53908;BME280;40469;47.998;7.794;2022-08-05T03:07:23;98609.34;;;23.99;49.88
53908;BME280;40469;47.998;7.794;2022-08-05T03:09:50;98611.34;;;24.09;49.41
53908;BME280;40469;47.998;7.794;2022-08-05T03:12:48;98609.22;;;24.14;49.45
53908;BME280;40469;47.998;7.794;2022-08-05T03:15:14;98606.47;;;24.02;49.19
53908;BME280;40469;47.998;7.794;2022-08-05T03:17:40;98609.47;;;23.98;49.59
53908;BME280;40469;47.998;7.794;2022-08-05T03:20:06;98610.66;;;23.94;49.55
53908;BME280;40469;47.998;7.794;2022-08-05T03:22:32;98617.03;;;23.91;49.40
53908;BME280;40469;47.998;7.794;2022-08-05T03:24:57;98611.94;;;23.88;49.47
53908;BME280;40469;47.998;7.794;2022-08-05T03:27:23;98616.50;;;23.99;48.94
53908;BME280;40469;47.998;7.794;2022-08-05T03:29:49;98617.56;;;24.09;48.67
53908;BME280;40469;47.998;7.794;2022-08-05T03:32:15;98618.84;;;24.16;48.59
53908;BME280;40469;47.998;7.794;2022-08-05T03:34:42;98619.47;;;24.07;48.87
53908;BME280;40469;47.998;7.794;2022-08-05T03:37:07;98616.69;;;24.09;48.87
53908;BME280;40469;47.998;7.794;2022-08-05T03:39:33;98615.97;;;24.07;48.86
53908;BME280;40469;47.998;7.794;2022-08-05T03:41:58;98614.38;;;24.04;49.25
53908;BME280;40469;47.998;7.794;2022-08-05T03:44:24;98618.75;;;23.92;50.56
53908;BME280;40469;47.998;7.794;2022-08-05T03:46:50;98617.16;;;23.90;50.96
53908;BME280;40469;47.998;7.794;2022-08-05T03:49:16;98618.34;;;23.98;50.38
53908;BME280;40469;47.998;7.794;2022-08-05T03:51:49;98617.22;;;23.62;51.32
53908;BME280;40469;47.998;7.794;2022-08-05T03:57:01;98617.97;;;23.39;51.34
53908;BME280;40469;47.998;7.794;2022-08-05T03:59:33;98616.34;;;23.36;51.40
53908;BME280;40469;47.998;7.794;2022-08-05T04:02:00;98620.94;;;23.47;51.11
53908;BME280;40469;47.998;7.794;2022-08-05T04:04:27;98618.31;;;23.60;51.01
53908;BME280;40469;47.998;7.794;2022-08-05T04:06:54;98627.16;;;23.47;51.86
53908;BME280;40469;47.998;7.794;2022-08-05T04:09:19;98624.25;;;23.38;52.45
53908;BME280;40469;47.998;7.794;2022-08-05T04:11:45;98628.72;;;23.37;52.40
53908;BME280;40469;47.998;7.794;2022-08-05T04:14:11;98641.09;;;23.51;52.08
53908;BME280;40469;47.998;7.794;2022-08-05T04:16:36;98651.88;;;23.62;51.47
53908;BME280;40469;47.998;7.794;2022-08-05T04:19:02;98662.13;;;23.69;51.31
53908;BME280;40469;47.998;7.794;2022-08-05T04:21:28;98671.72;;;23.58;52.02
53908;BME280;40469;47.998;7.794;2022-08-05T04:23:54;98693.56;;;23.63;51.63
53908;BME280;40469;47.998;7.794;2022-08-05T04:26:20;98710.13;;;23.69;53.72
53908;BME280;40469;47.998;7.794;2022-08-05T04:28:45;98744.50;;;23.59;55.61
53908;BME280;40469;47.998;7.794;2022-08-05T04:31:10;98772.31;;;23.42;57.29
53908;BME280;40469;47.998;7.794;2022-08-05T04:33:36;98785.19;;;23.48;58.69
53908;BME280;40469;47.998;7.794;2022-08-05T04:36:01;98782.19;;;23.13;60.34
53908;BME280;40469;47.998;7.794;2022-08-05T04:38:27;98787.72;;;23.37;59.01
53908;BME280;40469;47.998;7.794;2022-08-05T04:40:52;98779.75;;;23.37;57.90
53908;BME280;40469;47.998;7.794;2022-08-05T04:43:18;98780.84;;;23.05;60.02
53908;BME280;40469;47.998;7.794;2022-08-05T04:45:43;98783.53;;;23.33;58.78
53908;BME280;40469;47.998;7.794;2022-08-05T04:48:13;98789.41;;;23.38;58.57
53908;BME280;40469;47.998;7.794;2022-08-05T04:50:48;98787.88;;;23.06;59.09
53908;BME280;40469;47.998;7.794;2022-08-05T04:53:16;98793.94;;;23.23;59.30
53908;BME280;40469;47.998;7.794;2022-08-05T04:55:42;98796.44;;;23.26;57.71
53908;BME280;40469;47.998;7.794;2022-08-05T04:58:10;98804.50;;;22.96;58.16
53908;BME280;40469;47.998;7.794;2022-08-05T05:00:36;98805.97;;;23.16;58.39
53908;BME280;40469;47.998;7.794;2022-08-05T05:03:03;98820.13;;;23.43;57.90
53908;BME280;40469;47.998;7.794;2022-08-05T05:05:29;98819.63;;;23.24;57.40
53908;BME280;40469;47.998;7.794;2022-08-05T05:08:02;98842.22;;;23.45;57.86
53908;BME280;40469;47.998;7.794;2022-08-05T05:10:30;98857.56;;;23.42;60.56
53908;BME280;40469;47.998;7.794;2022-08-05T05:12:56;98850.41;;;23.42;61.54
53908;BME280;40469;47.998;7.794;2022-08-05T05:15:22;98863.09;;;23.39;63.58
53908;BME280;40469;47.998;7.794;2022-08-05T05:17:47;98875.25;;;23.43;61.31
53908;BME280;40469;47.998;7.794;2022-08-05T05:20:13;98880.31;;;23.33;61.24
53908;BME280;40469;47.998;7.794;2022-08-05T05:22:39;98871.31;;;23.48;60.07
53908;BME280;40469;47.998;7.794;2022-08-05T05:25:05;98869.53;;;23.49;61.15
53908;BME280;40469;47.998;7.794;2022-08-05T05:27:32;98861.63;;;23.47;61.30
53908;BME280;40469;47.998;7.794;2022-08-05T05:29:58;98847.00;;;23.40;61.20
53908;BME280;40469;47.998;7.794;2022-08-05T05:32:24;98841.53;;;23.56;60.51
53908;BME280;40469;47.998;7.794;2022-08-05T05:34:49;98853.13;;;23.55;61.24
53908;BME280;40469;47.998;7.794;2022-08-05T05:37:15;98856.53;;;23.57;60.28
53908;BME280;40469;47.998;7.794;2022-08-05T05:39:41;98858.50;;;23.68;60.21
53908;BME280;40469;47.998;7.794;2022-08-05T05:42:07;98861.81;;;23.72;60.19
53908;BME280;40469;47.998;7.794;2022-08-05T05:44:32;98866.78;;;23.78;60.61
53908;BME280;40469;47.998;7.794;2022-08-05T05:46:58;98870.47;;;23.75;60.40
53908;BME280;40469;47.998;7.794;2022-08-05T05:49:24;98871.94;;;23.81;59.67
53908;BME280;40469;47.998;7.794;2022-08-05T05:51:50;98875.25;;;23.84;59.52
53908;BME280;40469;47.998;7.794;2022-08-05T05:54:15;98862.16;;;23.94;58.85
53908;BME280;40469;47.998;7.794;2022-08-05T05:56:41;98860.47;;;23.93;59.11
53908;BME280;40469;47.998;7.794;2022-08-05T05:59:06;98864.63;;;23.97;58.56
53908;BME280;40469;47.998;7.794;2022-08-05T06:01:33;98859.50;;;24.07;58.65
53908;BME280;40469;47.998;7.794;2022-08-05T06:03:59;98861.13;;;24.10;57.94
53908;BME280;40469;47.998;7.794;2022-08-05T06:06:25;98860.31;;;24.22;57.74
53908;BME280;40469;47.998;7.794;2022-08-05T06:08:50;98864.81;;;24.34;56.92
53908;BME280;40469;47.998;7.794;2022-08-05T06:11:15;98855.31;;;24.43;56.92
53908;BME280;40469;47.998;7.794;2022-08-05T06:13:41;98858.88;;;24.56;56.65
53908;BME280;40469;47.998;7.794;2022-08-05T06:16:06;98853.03;;;24.64;56.48
53908;BME280;40469;47.998;7.794;2022-08-05T06:18:32;98857.81;;;24.72;56.52
53908;BME280;40469;47.998;7.794;2022-08-05T06:20:58;98858.44;;;24.75;55.20
53908;BME280;40469;47.998;7.794;2022-08-05T06:23:23;98866.59;;;24.87;55.66
53908;BME280;40469;47.998;7.794;2022-08-05T06:25:49;98870.53;;;24.94;55.37
53908;BME280;40469;47.998;7.794;2022-08-05T06:28:15;98864.00;;;24.98;55.38
53908;BME280;40469;47.998;7.794;2022-08-05T06:30:40;98870.06;;;25.00;55.46
53908;BME280;40469;47.998;7.794;2022-08-05T06:33:07;98875.00;;;25.06;55.73
53908;BME280;40469;47.998;7.794;2022-08-05T06:35:32;98876.91;;;25.17;55.11
53908;BME280;40469;47.998;7.794;2022-08-05T06:37:57;98870.25;;;25.23;55.50
53908;BME280;40469;47.998;7.794;2022-08-05T06:40:23;98878.28;;;25.23;54.93
53908;BME280;40469;47.998;7.794;2022-08-05T06:42:49;98882.88;;;25.21;54.10
53908;BME280;40469;47.998;7.794;2022-08-05T06:45:15;98887.38;;;25.20;53.50
53908;BME280;40469;47.998;7.794;2022-08-05T06:47:40;98891.75;;;25.21;53.84
53908;BME280;40469;47.998;7.794;2022-08-05T06:50:06;98891.75;;;25.21;54.32
53908;BME280;40469;47.998;7.794;2022-08-05T06:52:31;98903.00;;;25.13;54.31
53908;BME280;40469;47.998;7.794;2022-08-05T06:54:56;98904.91;;;24.98;54.02
53908;BME280;40469;47.998;7.794;2022-08-05T06:57:22;98920.19;;;24.96;54.43
53908;BME280;40469;47.998;7.794;2022-08-05T06:59:47;98928.63;;;25.03;54.62
53908;BME280;40469;47.998;7.794;2022-08-05T07:02:12;98927.25;;;24.97;54.18
53908;BME280;40469;47.998;7.794;2022-08-05T07:04:38;98934.63;;;24.94;54.56
53908;BME280;40469;47.998;7.794;2022-08-05T07:07:03;98926.91;;;25.02;55.09
53908;BME280;40469;47.998;7.794;2022-08-05T07:09:29;98925.44;;;24.98;55.20
53908;BME280;40469;47.998;7.794;2022-08-05T07:11:54;98925.75;;;24.93;55.60
53908;BME280;40469;47.998;7.794;2022-08-05T07:14:20;98922.78;;;24.85;56.22
53908;BME280;40469;47.998;7.794;2022-08-05T07:17:04;98926.06;;;24.76;56.37
53908;BME280;40469;47.998;7.794;2022-08-05T07:19:30;98923.91;;;24.68;56.93
53908;BME280;40469;47.998;7.794;2022-08-05T07:21:56;98935.34;;;24.70;56.70
53908;BME280;40469;47.998;7.794;2022-08-05T07:24:22;98934.06;;;24.76;57.25
53908;BME280;40469;47.998;7.794;2022-08-05T07:26:48;98936.97;;;24.86;56.78
53908;BME280;40469;47.998;7.794;2022-08-05T07:29:13;98929.38;;;24.92;56.36
53908;BME280;40469;47.998;7.794;2022-08-05T07:31:39;98935.25;;;25.23;55.17
53908;BME280;40469;47.998;7.794;2022-08-05T07:34:05;98932.84;;;25.57;54.70
53908;BME280;40469;47.998;7.794;2022-08-05T07:36:31;98931.31;;;25.79;54.13
53908;BME280;40469;47.998;7.794;2022-08-05T07:39:01;98912.22;;;25.83;54.07
53908;BME280;40469;47.998;7.794;2022-08-05T07:41:27;98898.00;;;25.83;53.31
53908;BME280;40469;47.998;7.794;2022-08-05T07:43:54;98889.88;;;25.84;52.46
53908;BME280;40469;47.998;7.794;2022-08-05T07:46:19;98897.75;;;25.99;52.90
53908;BME280;40469;47.998;7.794;2022-08-05T07:48:45;98895.63;;;26.15;52.02
53908;BME280;40469;47.998;7.794;2022-08-05T07:51:11;98905.34;;;26.40;50.88
53908;BME280;40469;47.998;7.794;2022-08-05T07:53:36;98904.34;;;26.65;50.56
53908;BME280;40469;47.998;7.794;2022-08-05T07:56:03;98888.28;;;26.65;49.51
53908;BME280;40469;47.998;7.794;2022-08-05T07:58:28;98878.19;;;26.69;48.98
53908;BME280;40469;47.998;7.794;2022-08-05T08:00:54;98869.53;;;26.77;49.03
53908;BME280;40469;47.998;7.794;2022-08-05T08:03:19;98867.72;;;26.89;48.02
53908;BME280;40469;47.998;7.794;2022-08-05T08:05:45;98865.03;;;26.77;47.35
53908;BME280;40469;47.998;7.794;2022-08-05T08:08:12;98869.44;;;26.90;47.10
53908;BME280;40469;47.998;7.794;2022-08-05T08:10:38;98870.53;;;26.87;46.65
53908;BME280;40469;47.998;7.794;2022-08-05T08:13:04;98872.22;;;26.99;46.09
53908;BME280;40469;47.998;7.794;2022-08-05T08:15:29;98887.56;;;27.09;45.38
53908;BME280;40469;47.998;7.794;2022-08-05T08:17:55;98882.09;;;27.10;46.17
53908;BME280;40469;47.998;7.794;2022-08-05T08:20:21;98878.44;;;27.22;45.59
53908;BME280;40469;47.998;7.794;2022-08-05T08:22:54;98875.41;;;27.38;44.80
53908;BME280;40469;47.998;7.794;2022-08-05T08:25:20;98878.81;;;27.52;43.76
53908;BME280;40469;47.998;7.794;2022-08-05T08:27:45;98874.88;;;27.56;43.70
53908;BME280;40469;47.998;7.794;2022-08-05T08:30:12;98859.03;;;27.64;43.15
53908;BME280;40469;47.998;7.794;2022-08-05T08:32:37;98863.50;;;27.64;41.92
53908;BME280;40469;47.998;7.794;2022-08-05T08:35:03;98856.69;;;27.71;42.58
53908;BME280;40469;47.998;7.794;2022-08-05T08:37:29;98855.16;;;27.89;42.79
53908;BME280;40469;47.998;7.794;2022-08-05T08:39:54;98847.53;;;28.06;41.76
53908;BME280;40469;47.998;7.794;2022-08-05T08:42:20;98842.00;;;28.18;42.12
53908;BME280;40469;47.998;7.794;2022-08-05T08:44:46;98838.19;;;28.21;41.90
53908;BME280;40469;47.998;7.794;2022-08-05T08:47:13;98833.03;;;28.29;41.53
53908;BME280;40469;47.998;7.794;2022-08-05T08:49:43;98838.78;;;28.46;41.51
53908;BME280;40469;47.998;7.794;2022-08-05T08:52:18;98826.22;;;28.67;40.46
53908;BME280;40469;47.998;7.794;2022-08-05T08:54:47;98831.91;;;28.53;40.45
53908;BME280;40469;47.998;7.794;2022-08-05T08:57:12;98827.66;;;28.29;41.34
53908;BME280;40469;47.998;7.794;2022-08-05T08:59:38;98818.44;;;28.22;40.85
53908;BME280;40469;47.998;7.794;2022-08-05T09:02:05;98820.19;;;28.33;41.45
53908;BME280;40469;47.998;7.794;2022-08-05T09:04:34;98818.84;;;28.48;40.62
53908;BME280;40469;47.998;7.794;2022-08-05T09:07:05;98821.25;;;28.42;40.21
53908;BME280;40469;47.998;7.794;2022-08-05T09:09:32;98814.63;;;28.25;41.01
53908;BME280;40469;47.998;7.794;2022-08-05T09:11:58;98815.47;;;28.46;40.35
53908;BME280;40469;47.998;7.794;2022-08-05T09:14:23;98806.31;;;28.70;39.02
53908;BME280;40469;47.998;7.794;2022-08-05T09:16:50;98800.63;;;29.04;39.61
53908;BME280;40469;47.998;7.794;2022-08-05T09:19:15;98794.81;;;29.59;37.27
53908;BME280;40469;47.998;7.794;2022-08-05T09:21:41;98788.34;;;29.81;37.04
53908;BME280;40469;47.998;7.794;2022-08-05T09:24:08;98790.72;;;29.55;37.19
53908;BME280;40469;47.998;7.794;2022-08-05T09:26:35;98792.03;;;29.80;36.77
53908;BME280;40469;47.998;7.794;2022-08-05T09:29:03;98795.97;;;29.56;37.16
53908;BME280;40469;47.998;7.794;2022-08-05T09:31:29;98794.81;;;29.49;36.84
53908;BME280;40469;47.998;7.794;2022-08-05T09:34:04;98791.13;;;29.40;37.04
53908;BME280;40469;47.998;7.794;2022-08-05T09:36:38;98794.53;;;30.11;36.71
53908;BME280;40469;47.998;7.794;2022-08-05T09:39:07;98785.16;;;30.24;36.04
53908;BME280;40469;47.998;7.794;2022-08-05T09:41:33;98787.00;;;30.24;35.74
53908;BME280;40469;47.998;7.794;2022-08-05T09:43:59;98787.31;;;30.78;35.02
53908;BME280;40469;47.998;7.794;2022-08-05T09:46:30;98785.16;;;31.37;34.87
53908;BME280;40469;47.998;7.794;2022-08-05T09:48:57;98782.06;;;31.60;33.89
53908;BME280;40469;47.998;7.794;2022-08-05T09:51:37;98771.78;;;31.81;33.97
53908;BME280;40469;47.998;7.794;2022-08-05T09:54:06;98769.47;;;31.86;33.88
53908;BME280;40469;47.998;7.794;2022-08-05T09:56:37;98762.78;;;31.45;34.04
53908;BME280;40469;47.998;7.794;2022-08-05T09:59:11;98762.88;;;31.89;35.09
53908;BME280;40469;47.998;7.794;2022-08-05T10:01:41;98753.50;;;32.63;33.21
53908;BME280;40469;47.998;7.794;2022-08-05T10:06:33;98747.63;;;32.50;31.73
53908;BME280;40469;47.998;7.794;2022-08-05T10:09:13;98746.69;;;32.33;32.13
53908;BME280;40469;47.998;7.794;2022-08-05T10:11:40;98744.00;;;32.59;31.91
53908;BME280;40469;47.998;7.794;2022-08-05T10:14:29;98743.09;;;32.93;31.55
53908;BME280;40469;47.998;7.794;2022-08-05T10:16:56;98740.63;;;33.08;31.24
53908;BME280;40469;47.998;7.794;2022-08-05T10:19:35;98747.81;;;33.34;30.80
53908;BME280;40469;47.998;7.794;2022-08-05T10:22:01;98743.78;;;33.46;31.07
53908;BME280;40469;47.998;7.794;2022-08-05T10:24:26;98742.63;;;33.65;30.65
53908;BME280;40469;47.998;7.794;2022-08-05T10:26:52;98749.78;;;33.91;30.17
53908;BME280;40469;47.998;7.794;2022-08-05T10:29:20;98747.53;;;34.35;29.76
53908;BME280;40469;47.998;7.794;2022-08-05T10:31:46;98744.94;;;33.27;30.32
53908;BME280;40469;47.998;7.794;2022-08-05T10:34:12;98745.69;;;32.60;32.35
53908;BME280;40469;47.998;7.794;2022-08-05T10:36:39;98748.81;;;32.47;32.07
53908;BME280;40469;47.998;7.794;2022-08-05T10:39:09;98742.69;;;32.72;32.44
53908;BME280;40469;47.998;7.794;2022-08-05T10:41:45;98743.09;;;33.28;31.98
53908;BME280;40469;47.998;7.794;2022-08-05T10:44:15;98740.06;;;33.31;31.61
53908;BME280;40469;47.998;7.794;2022-08-05T10:46:51;98734.72;;;33.80;31.22
53908;BME280;40469;47.998;7.794;2022-08-05T10:49:17;98740.09;;;34.29;30.65
53908;BME280;40469;47.998;7.794;2022-08-05T10:51:43;98735.69;;;34.36;29.60
53908;BME280;40469;47.998;7.794;2022-08-05T10:54:09;98728.81;;;34.57;29.44
53908;BME280;40469;47.998;7.794;2022-08-05T10:56:49;98735.72;;;34.68;29.11
53908;BME280;40469;47.998;7.794;2022-08-05T10:59:25;98738.41;;;34.04;29.99
53908;BME280;40469;47.998;7.794;2022-08-05T11:02:09;98736.72;;;34.19;29.67
53908;BME280;40469;47.998;7.794;2022-08-05T11:04:45;98740.63;;;34.08;29.89
53908;BME280;40469;47.998;7.794;2022-08-05T11:07:11;98737.91;;;34.25;30.38
53908;BME280;40469;47.998;7.794;2022-08-05T11:17:39;98737.25;;;35.10;29.24
53908;BME280;40469;47.998;7.794;2022-08-05T11:20:30;98739.97;;;35.41;27.45
53908;BME280;40469;47.998;7.794;2022-08-05T11:22:53;98733.19;;;35.14;28.67
53908;BME280;40469;47.998;7.794;2022-08-05T11:25:38;98736.84;;;34.90;29.14
53908;BME280;40469;47.998;7.794;2022-08-05T11:33:25;98753.13;;;34.09;31.48
53908;BME280;40469;47.998;7.794;2022-08-05T11:36:11;98745.69;;;34.28;30.28
53908;BME280;40469;47.998;7.794;2022-08-05T11:41:04;98745.72;;;33.78;32.38
53908;BME280;40469;47.998;7.794;2022-08-05T11:43:30;98744.31;;;33.58;32.00
53908;BME280;40469;47.998;7.794;2022-08-05T11:45:56;98742.78;;;33.47;32.74
53908;BME280;40469;47.998;7.794;2022-08-05T11:48:22;98744.81;;;33.45;32.41
53908;BME280;40469;47.998;7.794;2022-08-05T11:50:49;98746.53;;;33.71;32.27
53908;BME280;40469;47.998;7.794;2022-08-05T11:53:15;98749.41;;;34.10;33.50
53908;BME280;40469;47.998;7.794;2022-08-05T11:55:55;98744.69;;;33.96;32.99
53908;BME280;40469;47.998;7.794;2022-08-05T12:01:04;98746.16;;;34.15;33.12
53908;BME280;40469;47.998;7.794;2022-08-05T12:03:40;98745.88;;;34.10;32.25
53908;BME280;40469;47.998;7.794;2022-08-05T12:06:05;98741.28;;;34.27;32.04
53908;BME280;40469;47.998;7.794;2022-08-05T12:08:31;98747.28;;;34.53;32.19
53908;BME280;40469;47.998;7.794;2022-08-05T12:10:58;98745.31;;;34.39;31.84
53908;BME280;40469;47.998;7.794;2022-08-05T12:13:24;98735.53;;;34.13;31.20
53908;BME280;40469;47.998;7.794;2022-08-05T12:15:50;98741.09;;;34.20;31.10
53908;BME280;40469;47.998;7.794;2022-08-05T12:18:26;98736.56;;;34.21;31.39
53908;BME280;40469;47.998;7.794;2022-08-05T12:20:53;98736.22;;;33.91;31.91
53908;BME280;40469;47.998;7.794;2022-08-05T12:23:18;98744.31;;;33.99;31.68
53908;BME280;40469;47.998;7.794;2022-08-05T12:25:53;98740.63;;;33.84;32.20
53908;BME280;40469;47.998;7.794;2022-08-05T12:28:33;98742.47;;;33.91;31.94
53908;BME280;40469;47.998;7.794;2022-08-05T12:31:00;98747.06;;;33.91;31.80
53908;BME280;40469;47.998;7.794;2022-08-05T12:33:25;98735.03;;;33.93;31.72
53908;BME280;40469;47.998;7.794;2022-08-05T12:35:53;98740.44;;;34.26;32.16
53908;BME280;40469;47.998;7.794;2022-08-05T12:38:20;98738.22;;;34.38;31.59
53908;BME280;40469;47.998;7.794;2022-08-05T12:40:46;98739.22;;;34.45;31.11
53908;BME280;40469;47.998;7.794;2022-08-05T12:43:11;98742.44;;;34.32;31.79
53908;BME280;40469;47.998;7.794;2022-08-05T12:45:37;98739.06;;;34.30;31.56
53908;BME280;40469;47.998;7.794;2022-08-05T12:48:15;98748.28;;;34.69;31.08
53908;BME280;40469;47.998;7.794;2022-08-05T12:50:40;98734.06;;;35.06;30.44
53908;BME280;40469;47.998;7.794;2022-08-05T12:53:05;98734.63;;;34.93;30.79
53908;BME280;40469;47.998;7.794;2022-08-05T12:55:31;98733.91;;;35.00;30.45
53908;BME280;40469;47.998;7.794;2022-08-05T12:57:57;98731.88;;;35.33;30.04
53908;BME280;40469;47.998;7.794;2022-08-05T13:00:25;98730.44;;;35.45;31.06
53908;BME280;40469;47.998;7.794;2022-08-05T13:02:51;98719.22;;;35.25;30.55
53908;BME280;40469;47.998;7.794;2022-08-05T13:05:17;98730.72;;;35.27;30.82
53908;BME280;40469;47.998;7.794;2022-08-05T13:07:44;98726.31;;;34.95;30.73
53908;BME280;40469;47.998;7.794;2022-08-05T13:10:11;98720.09;;;34.86;31.00
53908;BME280;40469;47.998;7.794;2022-08-05T13:12:42;98719.00;;;34.96;30.54
53908;BME280;40469;47.998;7.794;2022-08-05T13:15:12;98704.22;;;34.67;31.09
53908;BME280;40469;47.998;7.794;2022-08-05T13:17:37;98706.50;;;34.94;32.32
53908;BME280;40469;47.998;7.794;2022-08-05T13:20:14;98708.97;;;34.65;31.53
53908;BME280;40469;47.998;7.794;2022-08-05T13:22:41;98695.00;;;34.84;31.13
53908;BME280;40469;47.998;7.794;2022-08-05T13:25:10;98699.09;;;34.80;31.24
53908;BME280;40469;47.998;7.794;2022-08-05T13:30:08;98702.09;;;34.46;31.79
53908;BME280;40469;47.998;7.794;2022-08-05T13:32:35;98696.50;;;34.47;31.05
53908;BME280;40469;47.998;7.794;2022-08-05T13:35:00;98703.81;;;34.30;31.15
53908;BME280;40469;47.998;7.794;2022-08-05T13:37:26;98698.16;;;34.48;31.51